Brighton, Illinois
Current Conditions -  °F | °C
As of 9:47 AM on Thursday 29 Jan 2015 (Local Time) from KALN Reporting Station
Overcast Overcast  
Wind Chill: 30°   Ceiling: 2200
Heat Index: 39°   Visibility: 10mi
Dew Point: 30°   Wind: 20mph
Humidity: 70%   Direction: 310°NW
Pressure: 30.08"   Gusts: 29mph
Location:  39.04°N, 90.14°W
Report Text: KALN 291547Z 31017G25KT 10SM OVC022 04/M01 A3008
Loading
Personal Weather Stations






























Interactive Weather Map New forecast layout! Learn more

10-Day Weather Forecast

Advertisements
Track Severe Weather on mobile